This is the latest recevied weather packets stored in our database for station/object KP4FJC. If no packets are shown the sender has not sent any weather packets the latest 10 day(s).
| Time | Temp. | Humidity | Pressure | Rain* | Wind** | Luminosity | Snow |
|---|---|---|---|---|---|---|---|
| 1778097009 | 32.78° C | 58% | 1016.3 hPa | 0 mm | - | 521 W/m² | - |
| 1778096707 | 32.78° C | 58% | 1016.3 hPa | 0 mm | - | 541 W/m² | - |
| 1778096403 | 31.67° C | 58% | 1016.4 hPa | 0 mm | - | 561 W/m² | - |
| 1778096101 | 32.22° C | 57% | 1016.6 hPa | 0 mm | - | 584 W/m² | - |
| 1778095796 | 32.78° C | 56% | 1016.6 hPa | 0 mm | - | 604 W/m² | - |
| 1778095494 | 32.78° C | 55% | 1016.4 hPa | 0 mm | - | 622 W/m² | - |
| 1778095190 | 32.78° C | 55% | 1016.5 hPa | 0 mm | - | 638 W/m² | - |
| 1778094886 | 32.78° C | 56% | 1016.8 hPa | 0 mm | - | 658 W/m² | - |
| 1778094578 | 33.33° C | 54% | 1016.6 hPa | 0 mm | - | 675 W/m² | - |
| 1778094275 | 32.78° C | 54% | 1016.6 hPa | 0 mm | - | 690 W/m² | - |
| 1778093971 | 32.78° C | 53% | 1016.8 hPa | 0 mm | - | 708 W/m² | - |
| 1778093669 | 32.78° C | 53% | 1016.8 hPa | 0 mm | - | 726 W/m² | - |
| 1778093366 | 33.33° C | 53% | 1016.6 hPa | 0 mm | - | 741 W/m² | - |
| 1778093062 | 33.33° C | 53% | 1017 hPa | 0 mm | - | 753 W/m² | - |
| 1778092760 | 32.78° C | 52% | 1017.1 hPa | 0 mm | - | 768 W/m² | - |
| 1778092455 | 33.33° C | 53% | 1017.2 hPa | 0 mm | - | 782 W/m² | - |
| 1778092153 | 33.89° C | 50% | 1017.1 hPa | 0 mm | - | 796 W/m² | - |
| 1778091850 | 33.33° C | 53% | 1017.2 hPa | 0 mm | - | 809 W/m² | - |
| 1778091547 | 32.78° C | 54% | 1017.1 hPa | 0 mm | - | 821 W/m² | - |
| 1778091245 | 33.33° C | 52% | 1017.2 hPa | 0 mm | - | 832 W/m² | - |
| 1778090941 | 33.33° C | 53% | 1017.2 hPa | 0 mm | - | 844 W/m² | - |
| 1778090637 | 32.78° C | 54% | 1017.3 hPa | 0 mm | - | 860 W/m² | - |
| 1778090334 | 33.33° C | 53% | 1017.4 hPa | 0 mm | - | 860 W/m² | - |
| 1778090031 | 33.33° C | 52% | 1017.4 hPa | 0 mm | - | 872 W/m² | - |
| 1778089728 | 33.33° C | 52% | 1017.6 hPa | 0 mm | - | 882 W/m² | - |
* Rain latest hour (hover to see other rain measurements)
** Current wind speed in m/s (hover to see current wind gust speed)